createdAt,value
2022-07-25T00:01:08.607Z,17.20
2022-07-25T00:03:39.986Z,17.20
2022-07-25T00:06:13.397Z,17.20
2022-07-25T00:08:45.741Z,17.10
2022-07-25T00:11:13.825Z,17.10
2022-07-25T00:13:41.934Z,17.10
2022-07-25T00:16:10.174Z,17.00
2022-07-25T00:18:39.681Z,17.00
2022-07-25T00:21:07.843Z,17.00
2022-07-25T00:23:35.904Z,17.00
2022-07-25T00:26:04.024Z,17.00
2022-07-25T00:28:32.065Z,17.00
2022-07-25T00:31:00.260Z,16.90
2022-07-25T00:33:28.537Z,16.80
2022-07-25T00:35:58.020Z,16.90
2022-07-25T00:38:26.169Z,16.90
2022-07-25T00:40:55.508Z,16.90
2022-07-25T00:43:24.152Z,16.90
2022-07-25T00:45:52.252Z,16.80
2022-07-25T00:48:21.183Z,16.80
2022-07-25T00:50:49.407Z,16.70
2022-07-25T00:53:19.374Z,16.70
2022-07-25T00:55:47.948Z,16.60
2022-07-25T00:58:16.453Z,16.60
2022-07-25T01:00:44.578Z,16.60
2022-07-25T01:03:12.846Z,16.60
2022-07-25T01:05:41.082Z,16.60
2022-07-25T01:08:10.065Z,16.60
2022-07-25T01:10:39.758Z,16.50
2022-07-25T01:13:08.021Z,16.50
2022-07-25T01:15:36.251Z,16.50
2022-07-25T01:18:07.781Z,16.50
2022-07-25T01:20:37.217Z,16.40
2022-07-25T01:23:05.380Z,16.40
2022-07-25T01:25:33.913Z,16.40
2022-07-25T01:28:02.002Z,16.30
2022-07-25T01:30:30.107Z,16.30
2022-07-25T01:32:58.189Z,16.30
2022-07-25T01:35:26.287Z,16.20
2022-07-25T01:37:55.621Z,16.30
2022-07-25T01:40:23.783Z,16.20
2022-07-25T01:42:51.842Z,16.20
2022-07-25T01:45:20.003Z,16.10
2022-07-25T01:47:48.098Z,16.10
2022-07-25T01:50:16.183Z,16.10
2022-07-25T01:52:44.386Z,16.10
2022-07-25T01:55:14.280Z,16.00
2022-07-25T01:57:49.743Z,16.00
2022-07-25T02:00:18.746Z,16.00
2022-07-25T02:02:47.212Z,15.90
2022-07-25T02:05:16.744Z,15.90
2022-07-25T02:07:44.858Z,15.90
2022-07-25T02:10:14.279Z,15.90
2022-07-25T02:12:42.388Z,15.80
2022-07-25T02:15:11.204Z,15.90
2022-07-25T02:17:39.312Z,15.90
2022-07-25T02:20:08.427Z,15.80
2022-07-25T02:22:36.489Z,15.90
2022-07-25T02:25:05.027Z,15.90
2022-07-25T02:27:34.404Z,15.80
2022-07-25T02:30:02.520Z,15.90
2022-07-25T02:32:31.703Z,15.80
2022-07-25T02:34:59.761Z,15.80
2022-07-25T02:37:27.845Z,15.70
2022-07-25T02:39:55.868Z,15.70
2022-07-25T02:42:24.033Z,15.70
2022-07-25T02:44:54.023Z,15.60
2022-07-25T02:47:22.081Z,15.60
2022-07-25T02:49:50.117Z,15.70
2022-07-25T02:52:18.333Z,15.50
2022-07-25T02:54:46.804Z,15.50
2022-07-25T02:57:14.817Z,15.50
2022-07-25T02:59:42.921Z,15.40
2022-07-25T03:02:12.391Z,15.40
2022-07-25T03:04:40.470Z,15.50
2022-07-25T03:07:08.540Z,15.40
2022-07-25T03:09:36.525Z,15.40
2022-07-25T03:12:05.077Z,15.40
2022-07-25T03:14:33.084Z,15.40
2022-07-25T03:17:01.518Z,15.30
2022-07-25T03:19:31.259Z,15.40
2022-07-25T03:21:59.310Z,15.30
2022-07-25T03:24:27.370Z,15.40
2022-07-25T03:26:56.059Z,15.30
2022-07-25T03:29:24.105Z,15.30
2022-07-25T03:31:52.182Z,15.30
2022-07-25T03:34:20.288Z,15.40
2022-07-25T03:36:49.627Z,15.30
2022-07-25T03:39:18.222Z,15.20
2022-07-25T03:41:46.403Z,15.20
2022-07-25T03:44:14.798Z,15.20
2022-07-25T03:46:42.988Z,15.20
2022-07-25T03:49:11.080Z,15.20
2022-07-25T03:51:39.208Z,15.20
2022-07-25T03:54:13.393Z,15.20
2022-07-25T03:56:43.444Z,15.20
2022-07-25T03:59:14.095Z,15.10
2022-07-25T04:01:43.750Z,15.20
2022-07-25T04:04:12.402Z,15.10
2022-07-25T04:06:41.509Z,15.20
2022-07-25T04:09:11.618Z,15.20
2022-07-25T04:11:40.056Z,15.20
2022-07-25T04:14:08.470Z,15.20
2022-07-25T04:16:37.045Z,15.20
2022-07-25T04:19:07.781Z,15.20
2022-07-25T04:21:36.769Z,15.30
2022-07-25T04:24:05.309Z,15.20
2022-07-25T04:26:34.856Z,15.30
2022-07-25T04:29:03.935Z,15.30
2022-07-25T04:31:32.193Z,15.40
2022-07-25T04:34:01.030Z,15.40
2022-07-25T04:36:29.801Z,15.40
2022-07-25T04:38:57.823Z,15.50
2022-07-25T04:41:25.860Z,15.50
2022-07-25T04:43:55.454Z,15.60
2022-07-25T04:46:24.071Z,15.60
2022-07-25T04:48:52.544Z,15.70
2022-07-25T04:51:20.669Z,15.90
2022-07-25T04:53:48.756Z,16.20
2022-07-25T04:56:16.898Z,16.60
2022-07-25T04:58:45.125Z,17.00
2022-07-25T05:01:14.588Z,17.20
2022-07-25T05:03:50.132Z,17.60
2022-07-25T05:06:19.419Z,17.90
2022-07-25T05:08:47.600Z,18.20
2022-07-25T05:11:15.651Z,18.50
2022-07-25T05:13:43.699Z,18.90
2022-07-25T05:16:11.916Z,19.40
2022-07-25T05:18:41.480Z,19.90
2022-07-25T05:21:12.104Z,20.30
2022-07-25T05:23:40.466Z,20.70
2022-07-25T05:26:08.727Z,20.90
2022-07-25T05:28:36.771Z,21.40
2022-07-25T05:31:05.395Z,21.70
2022-07-25T05:33:34.639Z,22.00
2022-07-25T05:36:05.121Z,22.40
2022-07-25T05:38:33.545Z,22.90
2022-07-25T05:41:02.005Z,23.30
2022-07-25T05:43:30.109Z,23.80
2022-07-25T05:46:01.957Z,24.20
2022-07-25T05:48:30.221Z,24.60
2022-07-25T05:50:59.352Z,25.00
2022-07-25T05:53:28.802Z,25.40
2022-07-25T05:55:56.892Z,25.80
2022-07-25T05:58:29.414Z,26.10
2022-07-25T06:00:58.379Z,26.50
2022-07-25T06:03:26.744Z,26.80
2022-07-25T06:05:56.158Z,27.30
2022-07-25T06:08:24.316Z,27.90
2022-07-25T06:10:54.488Z,28.10
2022-07-25T06:13:23.587Z,28.30
2022-07-25T06:15:51.878Z,28.60
2022-07-25T06:18:20.145Z,29.20
2022-07-25T06:20:48.832Z,29.70
2022-07-25T06:23:17.132Z,30.10
2022-07-25T06:25:50.041Z,30.20
2022-07-25T06:28:20.021Z,30.50
2022-07-25T06:30:48.385Z,30.70
2022-07-25T06:33:16.428Z,31.20
2022-07-25T06:35:44.480Z,31.50
2022-07-25T06:38:12.539Z,32.00
2022-07-25T06:40:40.605Z,32.40
2022-07-25T06:43:08.678Z,32.50
2022-07-25T06:45:38.158Z,32.90
2022-07-25T06:48:06.894Z,33.30
2022-07-25T06:50:34.964Z,33.50
2022-07-25T06:53:03.076Z,33.70
2022-07-25T06:55:31.101Z,33.80
2022-07-25T06:57:59.183Z,34.40
2022-07-25T07:00:27.686Z,34.10
2022-07-25T07:02:59.637Z,34.40
2022-07-25T07:05:29.439Z,35.10
2022-07-25T07:07:57.709Z,35.50
2022-07-25T07:10:26.699Z,36.30
2022-07-25T07:13:05.587Z,36.40
2022-07-25T07:15:36.229Z,36.70
2022-07-25T07:18:06.750Z,37.30
2022-07-25T07:20:34.863Z,37.70
2022-07-25T07:23:03.769Z,37.60
2022-07-25T07:25:32.026Z,37.60
2022-07-25T07:28:00.513Z,37.80
2022-07-25T07:30:52.122Z,38.30
2022-07-25T07:33:18.006Z,38.30
2022-07-25T07:35:46.050Z,38.40
2022-07-25T07:38:14.807Z,38.50
2022-07-25T07:40:42.865Z,38.70
2022-07-25T07:43:11.082Z,38.90
2022-07-25T07:45:39.168Z,38.60
2022-07-25T07:48:07.881Z,38.60
2022-07-25T07:50:37.419Z,39.20
2022-07-25T07:53:06.677Z,39.90
2022-07-25T07:55:46.814Z,40.10
2022-07-25T07:58:16.751Z,40.40
2022-07-25T08:00:45.713Z,40.60
2022-07-25T08:03:13.863Z,40.40
2022-07-25T08:05:45.348Z,40.20
2022-07-25T08:08:15.015Z,40.40
2022-07-25T08:10:45.684Z,40.30
2022-07-25T08:13:15.232Z,40.30
2022-07-25T08:15:44.520Z,40.00
2022-07-25T08:18:17.449Z,39.30
2022-07-25T08:20:48.504Z,38.70
2022-07-25T08:23:16.962Z,39.10
2022-07-25T08:25:45.746Z,38.70
2022-07-25T08:28:14.603Z,38.40
2022-07-25T08:30:43.937Z,37.80
2022-07-25T08:33:13.835Z,37.40
2022-07-25T08:35:46.489Z,37.00
2022-07-25T08:38:16.407Z,36.90
2022-07-25T08:40:44.557Z,37.10
2022-07-25T08:43:14.026Z,37.20
2022-07-25T08:45:46.375Z,36.90
2022-07-25T08:48:14.996Z,36.50
2022-07-25T08:50:43.371Z,36.10
2022-07-25T08:53:32.213Z,35.40
2022-07-25T08:56:02.492Z,35.60
2022-07-25T08:58:32.353Z,36.00
2022-07-25T09:01:00.346Z,36.70
2022-07-25T09:03:40.213Z,37.10
2022-07-25T09:06:19.179Z,37.70
2022-07-25T09:08:55.046Z,38.10
2022-07-25T09:11:32.196Z,38.40
2022-07-25T09:14:05.848Z,38.50
2022-07-25T09:16:36.790Z,38.50
2022-07-25T09:19:10.567Z,38.70
2022-07-25T09:21:39.782Z,38.90
2022-07-25T09:24:13.305Z,38.80
2022-07-25T09:26:48.321Z,38.60
2022-07-25T09:29:21.469Z,38.50
2022-07-25T09:31:49.924Z,38.00
2022-07-25T09:34:22.907Z,37.80
2022-07-25T09:36:54.515Z,37.70
2022-07-25T09:39:22.646Z,37.50
2022-07-25T09:41:52.071Z,37.60
2022-07-25T09:44:22.955Z,37.80
2022-07-25T09:46:51.525Z,37.80
2022-07-25T09:49:19.622Z,37.50
2022-07-25T09:51:48.494Z,37.00
2022-07-25T09:54:17.194Z,36.60
2022-07-25T09:56:45.229Z,36.40
2022-07-25T09:59:14.639Z,36.30
2022-07-25T10:01:53.199Z,36.10
2022-07-25T10:04:23.929Z,35.80
2022-07-25T10:07:04.462Z,35.50
2022-07-25T10:09:33.457Z,35.30
2022-07-25T10:12:06.238Z,35.50
2022-07-25T10:14:36.529Z,36.00
2022-07-25T10:17:05.441Z,36.00
2022-07-25T10:19:45.905Z,36.10
2022-07-25T10:22:20.338Z,36.10
2022-07-25T10:25:11.483Z,36.00
2022-07-25T10:27:44.971Z,36.30
2022-07-25T10:30:23.501Z,36.50
2022-07-25T10:32:52.543Z,36.70
2022-07-25T10:35:20.710Z,36.30
2022-07-25T10:37:52.140Z,36.10
2022-07-25T10:40:28.413Z,36.20
2022-07-25T10:43:03.899Z,36.10
2022-07-25T10:45:40.088Z,36.10
2022-07-25T10:48:09.667Z,36.30
2022-07-25T10:50:56.525Z,36.40
2022-07-25T10:53:38.226Z,36.20
2022-07-25T10:56:11.621Z,36.20
2022-07-25T10:58:47.982Z,35.90
2022-07-25T11:01:22.230Z,35.70
2022-07-25T11:03:50.613Z,35.60
2022-07-25T11:06:30.597Z,35.70
2022-07-25T11:09:01.019Z,35.50
2022-07-25T11:11:40.458Z,35.60
2022-07-25T11:14:16.857Z,35.70
2022-07-25T11:16:47.650Z,35.30
2022-07-25T11:19:21.260Z,34.80
2022-07-25T11:21:51.192Z,34.40
2022-07-25T11:24:19.899Z,34.00
2022-07-25T11:26:49.519Z,33.80
2022-07-25T11:29:23.780Z,33.50
2022-07-25T11:32:01.795Z,33.10
2022-07-25T11:34:32.406Z,32.70
2022-07-25T11:37:03.925Z,32.50
2022-07-25T11:39:34.107Z,32.40
2022-07-25T11:42:04.115Z,32.20
2022-07-25T11:44:37.439Z,32.10
2022-07-25T11:47:09.199Z,31.90
2022-07-25T11:49:47.541Z,31.80
2022-07-25T11:52:23.185Z,31.70
2022-07-25T11:54:53.325Z,31.60
2022-07-25T11:57:22.697Z,31.70
2022-07-25T11:59:50.799Z,31.90
2022-07-25T12:02:28.709Z,32.00
2022-07-25T12:04:58.467Z,32.10
2022-07-25T12:07:51.488Z,32.20
2022-07-25T12:10:25.080Z,32.20
2022-07-25T12:12:55.729Z,32.00
2022-07-25T12:15:25.357Z,31.30
2022-07-25T12:17:56.621Z,31.30
2022-07-25T12:20:27.124Z,31.20
2022-07-25T12:22:57.074Z,31.40
2022-07-25T12:25:30.707Z,31.70
2022-07-25T12:28:00.027Z,32.10
2022-07-25T12:30:29.221Z,32.80
2022-07-25T12:32:59.694Z,33.50
2022-07-25T12:35:28.088Z,34.00
2022-07-25T12:40:49.529Z,33.40
2022-07-25T12:43:17.655Z,32.90
2022-07-25T12:45:45.909Z,32.80
2022-07-25T12:48:16.369Z,32.70
2022-07-25T12:50:44.768Z,33.00
2022-07-25T12:53:14.112Z,33.20
2022-07-25T12:55:42.768Z,33.40
2022-07-25T12:58:11.518Z,33.70
2022-07-25T13:00:39.704Z,33.50
2022-07-25T13:03:07.780Z,33.50
2022-07-25T13:05:37.180Z,33.70
2022-07-25T13:08:06.109Z,33.20
2022-07-25T13:10:34.195Z,33.00
2022-07-25T13:13:02.281Z,33.20
2022-07-25T13:15:30.377Z,33.10
2022-07-25T13:17:58.595Z,33.00
2022-07-25T13:20:26.873Z,33.00
2022-07-25T13:22:56.342Z,33.10
2022-07-25T13:25:24.418Z,33.00
2022-07-25T13:27:52.508Z,33.00
2022-07-25T13:30:20.594Z,33.20
2022-07-25T13:32:50.218Z,33.50
2022-07-25T13:35:20.638Z,33.50
2022-07-25T13:37:49.574Z,33.60
2022-07-25T13:40:18.956Z,33.70
2022-07-25T13:42:47.043Z,33.70
2022-07-25T13:45:15.210Z,33.80
2022-07-25T13:47:43.462Z,33.70
2022-07-25T13:50:11.764Z,33.70
2022-07-25T13:52:39.823Z,33.50
2022-07-25T13:55:10.283Z,33.40
2022-07-25T13:57:39.795Z,33.50
2022-07-25T14:00:09.220Z,33.70
2022-07-25T14:02:37.421Z,33.40
2022-07-25T14:05:06.220Z,33.20
2022-07-25T14:07:35.611Z,33.00
2022-07-25T14:10:03.957Z,33.20
2022-07-25T14:12:32.148Z,33.30
2022-07-25T14:15:01.722Z,33.50
2022-07-25T14:17:30.662Z,33.40
2022-07-25T14:19:58.923Z,33.20
2022-07-25T14:22:27.069Z,33.10
2022-07-25T14:24:55.117Z,33.10
2022-07-25T14:27:23.338Z,33.10
2022-07-25T14:29:51.505Z,32.90
2022-07-25T14:32:21.001Z,32.20
2022-07-25T14:34:49.052Z,31.90
2022-07-25T14:37:17.141Z,32.10
2022-07-25T14:39:45.632Z,32.00
2022-07-25T14:42:13.750Z,32.00
2022-07-25T14:44:43.347Z,31.90
2022-07-25T14:47:12.759Z,31.50
2022-07-25T14:49:43.547Z,31.20
2022-07-25T14:52:13.042Z,31.10
2022-07-25T14:54:41.537Z,31.20
2022-07-25T14:57:09.986Z,31.30
2022-07-25T14:59:38.413Z,31.00
2022-07-25T15:02:06.599Z,31.20
2022-07-25T15:04:34.772Z,31.10
2022-07-25T15:07:04.360Z,31.20
2022-07-25T15:09:32.428Z,30.70
2022-07-25T15:12:00.538Z,30.70
2022-07-25T15:14:29.344Z,30.70
2022-07-25T15:16:57.468Z,30.30
2022-07-25T15:19:26.366Z,30.20
2022-07-25T15:21:54.781Z,30.20
2022-07-25T15:24:28.931Z,30.20
2022-07-25T15:26:57.974Z,30.20
2022-07-25T15:29:27.812Z,30.30
2022-07-25T15:31:56.049Z,30.40
2022-07-25T15:34:24.175Z,30.20
2022-07-25T15:36:52.324Z,30.20
2022-07-25T15:39:20.500Z,30.10
2022-07-25T15:41:49.884Z,30.00
2022-07-25T15:44:17.977Z,30.00
2022-07-25T15:46:46.864Z,30.00
2022-07-25T15:49:16.496Z,29.80
2022-07-25T15:51:44.594Z,29.80
2022-07-25T15:54:12.601Z,29.80
2022-07-25T15:56:41.232Z,29.60
2022-07-25T15:59:10.796Z,29.60
2022-07-25T16:01:38.931Z,29.40
2022-07-25T16:04:07.180Z,29.20
2022-07-25T16:06:35.349Z,29.30
2022-07-25T16:09:03.591Z,29.30
2022-07-25T16:11:31.930Z,29.00
2022-07-25T16:14:00.045Z,28.80
2022-07-25T16:16:29.651Z,28.70
2022-07-25T16:18:58.561Z,28.50
2022-07-25T16:21:26.622Z,28.40
2022-07-25T16:23:54.663Z,28.20
2022-07-25T16:26:22.855Z,28.30
2022-07-25T16:28:53.998Z,28.30
2022-07-25T16:31:26.492Z,28.50
2022-07-25T16:33:55.997Z,28.30
2022-07-25T16:36:25.342Z,28.50
2022-07-25T16:38:53.393Z,28.50
2022-07-25T16:41:21.461Z,28.50
2022-07-25T16:43:49.625Z,28.40
2022-07-25T16:46:17.722Z,28.30
2022-07-25T16:48:45.891Z,28.20
2022-07-25T16:51:16.141Z,28.10
2022-07-25T16:53:44.199Z,28.00
2022-07-25T16:56:12.258Z,27.80
2022-07-25T16:58:40.335Z,27.80
2022-07-25T17:01:08.407Z,27.60
2022-07-25T17:03:36.411Z,27.60
2022-07-25T17:06:04.802Z,27.50
2022-07-25T17:08:34.584Z,27.30
2022-07-25T17:11:03.365Z,27.20
2022-07-25T17:13:31.501Z,27.20
2022-07-25T17:15:59.638Z,27.00
2022-07-25T17:18:27.906Z,27.00
2022-07-25T17:20:55.972Z,26.80
2022-07-25T17:23:24.256Z,26.60
2022-07-25T17:25:54.488Z,26.40
2022-07-25T17:28:23.225Z,26.20
2022-07-25T17:30:51.451Z,26.10
2022-07-25T17:33:19.896Z,26.20
2022-07-25T17:35:48.024Z,26.20
2022-07-25T17:38:16.133Z,26.30
2022-07-25T17:40:44.369Z,26.40
2022-07-25T17:43:13.738Z,26.30
2022-07-25T17:45:42.224Z,25.90
2022-07-25T17:48:10.266Z,25.90
2022-07-25T17:50:38.353Z,25.90
2022-07-25T17:53:06.509Z,25.90
2022-07-25T17:55:38.752Z,25.80
2022-07-25T17:58:07.425Z,25.70
2022-07-25T18:00:36.825Z,25.70
2022-07-25T18:03:05.232Z,25.50
2022-07-25T18:05:33.385Z,25.40
2022-07-25T18:08:02.674Z,25.40
2022-07-25T18:10:30.978Z,25.30
2022-07-25T18:13:00.244Z,25.40
2022-07-25T18:15:28.640Z,25.30
2022-07-25T18:17:58.189Z,25.30
2022-07-25T18:20:27.965Z,25.00
2022-07-25T18:22:58.494Z,25.00
2022-07-25T18:25:26.684Z,24.80
2022-07-25T18:27:54.749Z,24.80
2022-07-25T18:30:27.225Z,24.80
2022-07-25T18:32:58.582Z,24.60
2022-07-25T18:35:26.693Z,24.50
2022-07-25T18:37:54.974Z,24.50
2022-07-25T18:40:23.171Z,24.40
2022-07-25T18:42:51.261Z,24.40
2022-07-25T18:45:19.303Z,24.30
2022-07-25T18:47:48.725Z,24.20
2022-07-25T18:50:20.142Z,24.10
2022-07-25T18:52:48.363Z,24.00
2022-07-25T18:55:16.419Z,24.00
2022-07-25T18:57:44.654Z,23.90
2022-07-25T19:00:13.015Z,23.70
2022-07-25T19:02:41.116Z,23.60
2022-07-25T19:05:10.041Z,23.60
2022-07-25T19:07:40.496Z,23.50
2022-07-25T19:10:09.729Z,23.50
2022-07-25T19:12:38.141Z,23.40
2022-07-25T19:15:07.538Z,23.40
2022-07-25T19:17:37.034Z,23.30
2022-07-25T19:20:06.010Z,23.30
2022-07-25T19:22:34.194Z,23.20
2022-07-25T19:25:07.509Z,23.10
2022-07-25T19:27:35.690Z,23.00
2022-07-25T19:30:06.883Z,22.90
2022-07-25T19:32:35.391Z,22.80
2022-07-25T19:35:03.863Z,22.70
2022-07-25T19:37:32.024Z,22.70
2022-07-25T19:40:00.048Z,22.60
2022-07-25T19:42:29.933Z,22.40
2022-07-25T19:44:58.113Z,22.50
2022-07-25T19:47:26.614Z,22.40
2022-07-25T19:49:54.640Z,22.30
2022-07-25T19:52:22.663Z,22.30
2022-07-25T19:54:50.688Z,22.20
2022-07-25T19:57:18.701Z,22.10
2022-07-25T19:59:48.080Z,22.10
2022-07-25T20:02:16.131Z,22.00
2022-07-25T20:04:44.366Z,21.90
2022-07-25T20:07:12.350Z,21.80
2022-07-25T20:09:40.605Z,21.70
2022-07-25T20:12:09.327Z,21.60
2022-07-25T20:14:37.397Z,21.50
2022-07-25T20:17:08.019Z,21.40
2022-07-25T20:19:36.752Z,21.30
2022-07-25T20:22:05.658Z,21.20
2022-07-25T20:24:33.685Z,21.10
2022-07-25T20:27:02.020Z,21.00
2022-07-25T20:29:30.165Z,20.80
2022-07-25T20:31:58.598Z,20.70
2022-07-25T20:34:28.062Z,20.60
2022-07-25T20:36:56.341Z,20.50
2022-07-25T20:39:26.231Z,20.50
2022-07-25T20:41:56.827Z,20.40
2022-07-25T20:44:24.922Z,20.30
2022-07-25T20:46:53.041Z,20.10
2022-07-25T20:49:21.335Z,20.00
2022-07-25T20:51:54.362Z,19.90
2022-07-25T20:54:22.858Z,19.80
2022-07-25T20:56:51.263Z,19.70
2022-07-25T20:59:19.467Z,19.60
2022-07-25T21:01:48.052Z,19.50
2022-07-25T21:04:16.830Z,19.40
2022-07-25T21:06:45.931Z,19.30
2022-07-25T21:09:15.634Z,19.20
2022-07-25T21:11:43.718Z,19.10
2022-07-25T21:14:11.716Z,19.00
2022-07-25T21:16:39.803Z,18.90
2022-07-25T21:19:08.285Z,18.80
2022-07-25T21:21:37.108Z,18.80
2022-07-25T21:24:06.412Z,18.70
2022-07-25T21:26:36.967Z,18.60
2022-07-25T21:29:05.314Z,18.60
2022-07-25T21:31:33.815Z,18.50
2022-07-25T21:34:02.183Z,18.40
2022-07-25T21:36:30.872Z,18.30
2022-07-25T21:38:58.941Z,18.20
2022-07-25T21:41:27.214Z,18.20
2022-07-25T21:43:56.821Z,18.10
2022-07-25T21:46:24.886Z,18.00
2022-07-25T21:49:10.787Z,17.90
2022-07-25T21:51:40.924Z,17.80
2022-07-25T21:54:09.484Z,17.80
2022-07-25T21:56:37.598Z,17.80
2022-07-25T21:59:07.375Z,17.70
2022-07-25T22:01:35.851Z,17.60
2022-07-25T22:04:05.040Z,17.50
2022-07-25T22:06:33.209Z,17.50
2022-07-25T22:09:01.561Z,17.60
2022-07-25T22:11:42.988Z,17.60
2022-07-25T22:14:17.013Z,17.60
2022-07-25T22:16:45.171Z,17.50
2022-07-25T22:19:13.602Z,17.50
2022-07-25T22:21:41.707Z,17.50
2022-07-25T22:24:10.704Z,17.40
2022-07-25T22:26:38.886Z,17.40
2022-07-25T22:29:07.340Z,17.40
2022-07-25T22:31:38.767Z,17.40
2022-07-25T22:34:07.924Z,17.40
2022-07-25T22:36:36.047Z,17.50
2022-07-25T22:39:04.600Z,17.40
2022-07-25T22:41:33.044Z,17.40
2022-07-25T22:44:01.122Z,17.50
2022-07-25T22:46:30.235Z,17.50
2022-07-25T22:49:00.253Z,17.50
2022-07-25T22:51:29.895Z,17.60
2022-07-25T22:53:58.549Z,17.60
2022-07-25T22:56:27.314Z,17.80
2022-07-25T22:58:55.886Z,17.60
2022-07-25T23:01:24.431Z,17.70
2022-07-25T23:03:52.838Z,17.70
2022-07-25T23:06:22.717Z,17.70
2022-07-25T23:08:51.021Z,17.80
2022-07-25T23:11:19.268Z,17.80
2022-07-25T23:13:47.325Z,17.80
2022-07-25T23:16:15.375Z,17.80
2022-07-25T23:18:43.475Z,17.80
2022-07-25T23:21:11.818Z,17.80
2022-07-25T23:23:41.160Z,17.70
2022-07-25T23:26:09.213Z,17.70
2022-07-25T23:28:37.250Z,17.70
2022-07-25T23:31:05.442Z,17.70
2022-07-25T23:33:33.554Z,17.70
2022-07-25T23:36:03.045Z,17.70
2022-07-25T23:38:31.094Z,17.70
2022-07-25T23:41:00.495Z,17.70
2022-07-25T23:43:57.523Z,17.80
2022-07-25T23:46:16.642Z,17.80
2022-07-25T23:48:46.506Z,17.80
2022-07-25T23:51:16.594Z,17.90
2022-07-25T23:53:44.706Z,17.90
2022-07-25T23:56:18.764Z,17.90
2022-07-25T23:58:50.064Z,18.00
